sensor_id;sensor_type;location;lat;lon;timestamp;P1;durP1;ratioP1;P2;durP2;ratioP2
77078;SDS011;66004;55.096;38.760;2024-03-29T00:00:24;7.50;;;3.35;;
77078;SDS011;66004;55.096;38.760;2024-03-29T00:05:15;8.80;;;3.03;;
77078;SDS011;66004;55.096;38.760;2024-03-29T00:07:41;9.23;;;3.35;;
77078;SDS011;66004;55.096;38.760;2024-03-29T00:10:06;10.88;;;3.33;;
77078;SDS011;66004;55.096;38.760;2024-03-29T00:12:32;9.13;;;3.75;;
77078;SDS011;66004;55.096;38.760;2024-03-29T00:14:57;7.95;;;3.38;;
77078;SDS011;66004;55.096;38.760;2024-03-29T00:17:23;8.65;;;3.55;;
77078;SDS011;66004;55.096;38.760;2024-03-29T00:19:48;6.85;;;3.42;;
77078;SDS011;66004;55.096;38.760;2024-03-29T00:22:14;13.57;;;3.58;;
77078;SDS011;66004;55.096;38.760;2024-03-29T00:27:05;9.48;;;3.40;;
77078;SDS011;66004;55.096;38.760;2024-03-29T00:29:31;6.80;;;2.70;;
77078;SDS011;66004;55.096;38.760;2024-03-29T00:31:57;9.05;;;2.60;;
77078;SDS011;66004;55.096;38.760;2024-03-29T00:34:23;6.18;;;2.83;;
77078;SDS011;66004;55.096;38.760;2024-03-29T00:36:48;7.35;;;2.63;;
77078;SDS011;66004;55.096;38.760;2024-03-29T00:39:14;9.10;;;3.08;;
77078;SDS011;66004;55.096;38.760;2024-03-29T00:41:39;10.00;;;2.83;;
77078;SDS011;66004;55.096;38.760;2024-03-29T00:44:05;7.60;;;2.97;;
77078;SDS011;66004;55.096;38.760;2024-03-29T00:46:30;9.10;;;2.63;;
77078;SDS011;66004;55.096;38.760;2024-03-29T00:48:56;5.20;;;2.35;;
77078;SDS011;66004;55.096;38.760;2024-03-29T00:51:21;6.90;;;2.72;;
77078;SDS011;66004;55.096;38.760;2024-03-29T00:53:47;6.13;;;3.40;;
77078;SDS011;66004;55.096;38.760;2024-03-29T00:56:12;9.48;;;2.78;;
77078;SDS011;66004;55.096;38.760;2024-03-29T00:58:40;9.05;;;2.70;;
77078;SDS011;66004;55.096;38.760;2024-03-29T01:01:05;7.75;;;3.47;;
77078;SDS011;66004;55.096;38.760;2024-03-29T01:03:31;10.32;;;3.03;;
77078;SDS011;66004;55.096;38.760;2024-03-29T01:05:56;7.93;;;3.15;;
77078;SDS011;66004;55.096;38.760;2024-03-29T01:08:22;8.98;;;3.15;;
77078;SDS011;66004;55.096;38.760;2024-03-29T01:10:48;10.13;;;3.20;;
77078;SDS011;66004;55.096;38.760;2024-03-29T01:13:14;10.43;;;3.33;;
77078;SDS011;66004;55.096;38.760;2024-03-29T01:15:40;7.50;;;3.03;;
77078;SDS011;66004;55.096;38.760;2024-03-29T01:18:05;5.88;;;2.42;;
77078;SDS011;66004;55.096;38.760;2024-03-29T01:20:31;7.97;;;2.53;;
77078;SDS011;66004;55.096;38.760;2024-03-29T01:22:56;6.00;;;2.97;;
77078;SDS011;66004;55.096;38.760;2024-03-29T01:25:22;8.68;;;3.05;;
77078;SDS011;66004;55.096;38.760;2024-03-29T01:27:49;7.43;;;3.42;;
77078;SDS011;66004;55.096;38.760;2024-03-29T01:30:14;6.78;;;3.00;;
77078;SDS011;66004;55.096;38.760;2024-03-29T01:32:40;8.18;;;2.88;;
77078;SDS011;66004;55.096;38.760;2024-03-29T01:35:06;6.07;;;2.58;;
77078;SDS011;66004;55.096;38.760;2024-03-29T01:37:31;5.10;;;2.72;;
77078;SDS011;66004;55.096;38.760;2024-03-29T01:39:57;5.25;;;2.75;;
77078;SDS011;66004;55.096;38.760;2024-03-29T01:42:22;4.47;;;2.58;;
77078;SDS011;66004;55.096;38.760;2024-03-29T01:44:48;6.40;;;2.38;;
77078;SDS011;66004;55.096;38.760;2024-03-29T01:49:39;6.35;;;3.00;;
77078;SDS011;66004;55.096;38.760;2024-03-29T01:52:05;6.38;;;2.88;;
77078;SDS011;66004;55.096;38.760;2024-03-29T01:54:31;7.28;;;3.30;;
77078;SDS011;66004;55.096;38.760;2024-03-29T01:59:23;6.70;;;3.17;;
77078;SDS011;66004;55.096;38.760;2024-03-29T02:01:50;8.70;;;3.00;;
77078;SDS011;66004;55.096;38.760;2024-03-29T02:04:16;8.18;;;2.55;;
77078;SDS011;66004;55.096;38.760;2024-03-29T02:06:42;8.20;;;3.20;;
77078;SDS011;66004;55.096;38.760;2024-03-29T02:11:34;4.83;;;3.07;;
77078;SDS011;66004;55.096;38.760;2024-03-29T02:14:00;6.50;;;2.55;;
77078;SDS011;66004;55.096;38.760;2024-03-29T02:16:26;9.38;;;2.42;;
77078;SDS011;66004;55.096;38.760;2024-03-29T02:18:51;9.25;;;2.78;;
77078;SDS011;66004;55.096;38.760;2024-03-29T02:21:17;6.30;;;2.97;;
77078;SDS011;66004;55.096;38.760;2024-03-29T02:23:46;8.48;;;2.80;;
77078;SDS011;66004;55.096;38.760;2024-03-29T02:26:12;7.10;;;2.65;;
77078;SDS011;66004;55.096;38.760;2024-03-29T02:28:38;11.63;;;3.13;;
77078;SDS011;66004;55.096;38.760;2024-03-29T02:31:04;4.60;;;2.35;;
77078;SDS011;66004;55.096;38.760;2024-03-29T02:33:30;6.22;;;2.72;;
77078;SDS011;66004;55.096;38.760;2024-03-29T02:35:55;8.95;;;2.58;;
77078;SDS011;66004;55.096;38.760;2024-03-29T02:38:21;8.68;;;2.85;;
77078;SDS011;66004;55.096;38.760;2024-03-29T02:40:46;5.63;;;2.40;;
77078;SDS011;66004;55.096;38.760;2024-03-29T02:45:37;7.15;;;2.65;;
77078;SDS011;66004;55.096;38.760;2024-03-29T02:50:28;6.65;;;2.50;;
77078;SDS011;66004;55.096;38.760;2024-03-29T02:52:54;6.13;;;1.90;;
77078;SDS011;66004;55.096;38.760;2024-03-29T02:55:19;4.78;;;2.00;;
77078;SDS011;66004;55.096;38.760;2024-03-29T02:57:45;4.00;;;2.22;;
77078;SDS011;66004;55.096;38.760;2024-03-29T03:02:39;4.90;;;2.03;;
77078;SDS011;66004;55.096;38.760;2024-03-29T03:05:05;4.82;;;2.03;;
77078;SDS011;66004;55.096;38.760;2024-03-29T03:07:31;9.15;;;2.22;;
77078;SDS011;66004;55.096;38.760;2024-03-29T03:10:15;5.05;;;2.40;;
77078;SDS011;66004;55.096;38.760;2024-03-29T03:12:59;6.80;;;2.25;;
77078;SDS011;66004;55.096;38.760;2024-03-29T03:15:25;3.65;;;1.67;;
77078;SDS011;66004;55.096;38.760;2024-03-29T03:20:16;5.05;;;2.15;;
77078;SDS011;66004;55.096;38.760;2024-03-29T03:22:41;7.13;;;2.85;;
77078;SDS011;66004;55.096;38.760;2024-03-29T03:25:07;3.60;;;1.58;;
77078;SDS011;66004;55.096;38.760;2024-03-29T03:27:33;5.50;;;2.15;;
77078;SDS011;66004;55.096;38.760;2024-03-29T03:29:59;6.72;;;2.22;;
77078;SDS011;66004;55.096;38.760;2024-03-29T03:34:50;5.47;;;2.55;;
77078;SDS011;66004;55.096;38.760;2024-03-29T03:37:15;5.65;;;1.92;;
77078;SDS011;66004;55.096;38.760;2024-03-29T03:39:42;5.82;;;2.05;;
77078;SDS011;66004;55.096;38.760;2024-03-29T03:42:07;10.73;;;2.13;;
77078;SDS011;66004;55.096;38.760;2024-03-29T03:44:33;6.38;;;2.17;;
77078;SDS011;66004;55.096;38.760;2024-03-29T03:46:58;7.85;;;1.95;;
77078;SDS011;66004;55.096;38.760;2024-03-29T03:51:49;5.03;;;2.33;;
77078;SDS011;66004;55.096;38.760;2024-03-29T03:54:15;4.05;;;1.90;;
77078;SDS011;66004;55.096;38.760;2024-03-29T03:59:06;3.50;;;1.90;;
77078;SDS011;66004;55.096;38.760;2024-03-29T04:03:57;8.77;;;1.90;;
77078;SDS011;66004;55.096;38.760;2024-03-29T04:06:22;6.05;;;2.70;;
77078;SDS011;66004;55.096;38.760;2024-03-29T04:11:13;7.85;;;2.50;;
77078;SDS011;66004;55.096;38.760;2024-03-29T04:13:39;7.13;;;2.20;;
77078;SDS011;66004;55.096;38.760;2024-03-29T04:16:06;4.88;;;2.35;;
77078;SDS011;66004;55.096;38.760;2024-03-29T04:18:32;6.05;;;2.20;;
77078;SDS011;66004;55.096;38.760;2024-03-29T04:20:59;7.70;;;2.35;;
77078;SDS011;66004;55.096;38.760;2024-03-29T04:23:25;8.85;;;2.50;;
77078;SDS011;66004;55.096;38.760;2024-03-29T04:25:51;6.20;;;1.80;;
77078;SDS011;66004;55.096;38.760;2024-03-29T04:28:20;4.47;;;2.08;;
77078;SDS011;66004;55.096;38.760;2024-03-29T04:30:56;6.57;;;2.28;;
77078;SDS011;66004;55.096;38.760;2024-03-29T04:33:23;11.45;;;2.17;;
77078;SDS011;66004;55.096;38.760;2024-03-29T04:35:56;5.88;;;2.42;;
77078;SDS011;66004;55.096;38.760;2024-03-29T04:38:24;12.10;;;2.53;;
77078;SDS011;66004;55.096;38.760;2024-03-29T04:40:50;4.85;;;2.47;;
77078;SDS011;66004;55.096;38.760;2024-03-29T04:43:16;7.75;;;2.65;;
77078;SDS011;66004;55.096;38.760;2024-03-29T04:45:43;20.08;;;2.70;;
77078;SDS011;66004;55.096;38.760;2024-03-29T04:48:09;4.85;;;2.10;;
77078;SDS011;66004;55.096;38.760;2024-03-29T04:50:35;8.55;;;2.15;;
77078;SDS011;66004;55.096;38.760;2024-03-29T04:53:01;4.97;;;2.22;;
77078;SDS011;66004;55.096;38.760;2024-03-29T04:57:52;12.60;;;2.58;;
77078;SDS011;66004;55.096;38.760;2024-03-29T05:00:17;5.32;;;2.00;;
77078;SDS011;66004;55.096;38.760;2024-03-29T05:05:08;5.93;;;2.45;;
77078;SDS011;66004;55.096;38.760;2024-03-29T05:09:59;5.00;;;2.15;;
77078;SDS011;66004;55.096;38.760;2024-03-29T05:14:50;9.07;;;2.90;;
77078;SDS011;66004;55.096;38.760;2024-03-29T05:17:16;10.23;;;2.15;;
77078;SDS011;66004;55.096;38.760;2024-03-29T05:22:08;6.25;;;2.58;;
77078;SDS011;66004;55.096;38.760;2024-03-29T05:26:58;20.50;;;2.87;;
77078;SDS011;66004;55.096;38.760;2024-03-29T05:31:49;9.00;;;3.22;;
77078;SDS011;66004;55.096;38.760;2024-03-29T05:36:40;9.98;;;2.90;;
77078;SDS011;66004;55.096;38.760;2024-03-29T05:41:31;7.07;;;2.58;;
77078;SDS011;66004;55.096;38.760;2024-03-29T05:46:23;5.30;;;2.45;;
77078;SDS011;66004;55.096;38.760;2024-03-29T05:48:48;12.75;;;2.72;;
77078;SDS011;66004;55.096;38.760;2024-03-29T05:51:14;4.82;;;2.15;;
77078;SDS011;66004;55.096;38.760;2024-03-29T05:53:39;4.90;;;2.17;;
77078;SDS011;66004;55.096;38.760;2024-03-29T05:58:32;13.23;;;2.60;;
77078;SDS011;66004;55.096;38.760;2024-03-29T06:00:59;15.25;;;3.10;;
77078;SDS011;66004;55.096;38.760;2024-03-29T06:05:50;4.80;;;1.63;;
77078;SDS011;66004;55.096;38.760;2024-03-29T06:10:40;9.95;;;2.90;;
77078;SDS011;66004;55.096;38.760;2024-03-29T06:16:03;12.50;;;2.88;;
77078;SDS011;66004;55.096;38.760;2024-03-29T06:18:55;6.63;;;2.53;;
77078;SDS011;66004;55.096;38.760;2024-03-29T06:23:46;8.93;;;2.83;;
77078;SDS011;66004;55.096;38.760;2024-03-29T06:28:37;5.05;;;2.55;;
77078;SDS011;66004;55.096;38.760;2024-03-29T06:33:27;12.88;;;3.25;;
77078;SDS011;66004;55.096;38.760;2024-03-29T06:38:19;4.63;;;2.53;;
77078;SDS011;66004;55.096;38.760;2024-03-29T06:43:11;12.50;;;3.03;;
77078;SDS011;66004;55.096;38.760;2024-03-29T06:45:40;12.23;;;3.25;;
77078;SDS011;66004;55.096;38.760;2024-03-29T06:48:08;11.35;;;3.28;;
77078;SDS011;66004;55.096;38.760;2024-03-29T06:50:34;7.38;;;2.85;;
77078;SDS011;66004;55.096;38.760;2024-03-29T06:55:25;11.02;;;3.53;;
77078;SDS011;66004;55.096;38.760;2024-03-29T07:00:16;7.82;;;3.47;;
77078;SDS011;66004;55.096;38.760;2024-03-29T07:02:42;10.02;;;4.03;;
77078;SDS011;66004;55.096;38.760;2024-03-29T07:05:08;6.25;;;3.33;;
77078;SDS011;66004;55.096;38.760;2024-03-29T07:07:36;13.65;;;3.35;;
77078;SDS011;66004;55.096;38.760;2024-03-29T07:10:02;8.48;;;3.35;;
77078;SDS011;66004;55.096;38.760;2024-03-29T07:12:28;8.27;;;4.07;;
77078;SDS011;66004;55.096;38.760;2024-03-29T07:14:54;15.82;;;4.00;;
77078;SDS011;66004;55.096;38.760;2024-03-29T07:19:45;7.55;;;3.38;;
77078;SDS011;66004;55.096;38.760;2024-03-29T07:22:10;8.27;;;3.70;;
77078;SDS011;66004;55.096;38.760;2024-03-29T07:27:01;8.37;;;3.90;;
77078;SDS011;66004;55.096;38.760;2024-03-29T07:31:52;14.77;;;4.20;;
77078;SDS011;66004;55.096;38.760;2024-03-29T07:36:43;6.97;;;3.53;;
77078;SDS011;66004;55.096;38.760;2024-03-29T07:41:33;9.00;;;3.90;;
77078;SDS011;66004;55.096;38.760;2024-03-29T07:46:28;24.80;;;3.97;;
77078;SDS011;66004;55.096;38.760;2024-03-29T07:48:55;14.02;;;3.63;;
77078;SDS011;66004;55.096;38.760;2024-03-29T07:53:47;8.63;;;3.22;;
77078;SDS011;66004;55.096;38.760;2024-03-29T07:56:12;11.27;;;5.15;;
77078;SDS011;66004;55.096;38.760;2024-03-29T08:01:03;9.75;;;3.40;;
77078;SDS011;66004;55.096;38.760;2024-03-29T08:03:29;6.35;;;2.97;;
77078;SDS011;66004;55.096;38.760;2024-03-29T08:08:22;8.93;;;3.90;;
77078;SDS011;66004;55.096;38.760;2024-03-29T08:10:50;8.93;;;4.35;;
77078;SDS011;66004;55.096;38.760;2024-03-29T08:15:45;10.75;;;3.50;;
77078;SDS011;66004;55.096;38.760;2024-03-29T08:20:36;7.75;;;3.72;;
77078;SDS011;66004;55.096;38.760;2024-03-29T08:25:27;10.32;;;4.38;;
77078;SDS011;66004;55.096;38.760;2024-03-29T08:30:24;6.13;;;2.85;;
77078;SDS011;66004;55.096;38.760;2024-03-29T08:32:57;7.72;;;3.53;;
77078;SDS011;66004;55.096;38.760;2024-03-29T08:35:24;11.52;;;3.88;;
77078;SDS011;66004;55.096;38.760;2024-03-29T08:37:50;8.57;;;4.40;;
77078;SDS011;66004;55.096;38.760;2024-03-29T08:40:16;9.25;;;3.45;;
77078;SDS011;66004;55.096;38.760;2024-03-29T08:42:42;10.20;;;4.45;;
77078;SDS011;66004;55.096;38.760;2024-03-29T08:47:33;8.30;;;3.80;;
77078;SDS011;66004;55.096;38.760;2024-03-29T08:49:59;10.73;;;4.30;;
77078;SDS011;66004;55.096;38.760;2024-03-29T08:54:50;11.50;;;3.95;;
77078;SDS011;66004;55.096;38.760;2024-03-29T08:59:41;7.07;;;3.00;;
77078;SDS011;66004;55.096;38.760;2024-03-29T09:02:06;8.05;;;3.88;;
77078;SDS011;66004;55.096;38.760;2024-03-29T09:06:59;8.95;;;3.78;;
77078;SDS011;66004;55.096;38.760;2024-03-29T09:09:27;7.32;;;3.85;;
77078;SDS011;66004;55.096;38.760;2024-03-29T09:11:53;7.00;;;3.97;;
77078;SDS011;66004;55.096;38.760;2024-03-29T09:14:20;12.25;;;3.90;;
77078;SDS011;66004;55.096;38.760;2024-03-29T09:19:12;11.18;;;4.55;;
77078;SDS011;66004;55.096;38.760;2024-03-29T09:21:39;9.90;;;4.25;;
77078;SDS011;66004;55.096;38.760;2024-03-29T09:24:05;9.73;;;3.75;;
77078;SDS011;66004;55.096;38.760;2024-03-29T09:28:56;12.40;;;4.20;;
77078;SDS011;66004;55.096;38.760;2024-03-29T09:33:47;6.95;;;3.92;;
77078;SDS011;66004;55.096;38.760;2024-03-29T09:36:17;11.50;;;4.22;;
77078;SDS011;66004;55.096;38.760;2024-03-29T09:38:45;9.02;;;4.18;;
77078;SDS011;66004;55.096;38.760;2024-03-29T09:43:44;8.90;;;3.97;;
77078;SDS011;66004;55.096;38.760;2024-03-29T09:46:14;9.75;;;3.45;;
77078;SDS011;66004;55.096;38.760;2024-03-29T09:48:41;15.80;;;4.00;;
77078;SDS011;66004;55.096;38.760;2024-03-29T09:51:10;10.13;;;4.40;;
77078;SDS011;66004;55.096;38.760;2024-03-29T09:53:39;10.65;;;4.93;;
77078;SDS011;66004;55.096;38.760;2024-03-29T09:56:06;8.70;;;4.47;;
77078;SDS011;66004;55.096;38.760;2024-03-29T09:58:33;10.85;;;4.32;;
77078;SDS011;66004;55.096;38.760;2024-03-29T10:01:03;10.38;;;4.93;;
77078;SDS011;66004;55.096;38.760;2024-03-29T10:03:30;12.25;;;4.28;;
77078;SDS011;66004;55.096;38.760;2024-03-29T10:05:57;14.02;;;5.47;;
77078;SDS011;66004;55.096;38.760;2024-03-29T10:08:27;11.20;;;5.22;;
77078;SDS011;66004;55.096;38.760;2024-03-29T10:10:54;12.05;;;5.45;;
77078;SDS011;66004;55.096;38.760;2024-03-29T10:13:21;8.60;;;4.05;;
77078;SDS011;66004;55.096;38.760;2024-03-29T10:18:14;8.85;;;5.07;;
77078;SDS011;66004;55.096;38.760;2024-03-29T10:20:41;9.18;;;4.60;;
77078;SDS011;66004;55.096;38.760;2024-03-29T10:25:33;8.20;;;3.97;;
77078;SDS011;66004;55.096;38.760;2024-03-29T10:27:59;8.52;;;4.60;;
77078;SDS011;66004;55.096;38.760;2024-03-29T10:30:29;13.43;;;4.80;;
77078;SDS011;66004;55.096;38.760;2024-03-29T10:32:55;11.27;;;5.38;;
77078;SDS011;66004;55.096;38.760;2024-03-29T10:35:21;14.63;;;4.60;;
77078;SDS011;66004;55.096;38.760;2024-03-29T10:37:47;14.60;;;4.78;;
77078;SDS011;66004;55.096;38.760;2024-03-29T10:40:13;11.30;;;4.53;;
77078;SDS011;66004;55.096;38.760;2024-03-29T10:42:42;10.50;;;4.93;;
77078;SDS011;66004;55.096;38.760;2024-03-29T10:45:09;10.85;;;5.15;;
77078;SDS011;66004;55.096;38.760;2024-03-29T10:47:35;8.23;;;5.00;;
77078;SDS011;66004;55.096;38.760;2024-03-29T10:52:30;10.23;;;4.75;;
77078;SDS011;66004;55.096;38.760;2024-03-29T10:57:25;10.68;;;5.18;;
77078;SDS011;66004;55.096;38.760;2024-03-29T11:02:48;9.45;;;5.43;;
77078;SDS011;66004;55.096;38.760;2024-03-29T11:05:17;12.65;;;5.35;;
77078;SDS011;66004;55.096;38.760;2024-03-29T11:07:43;11.82;;;5.32;;
77078;SDS011;66004;55.096;38.760;2024-03-29T11:10:15;11.02;;;5.40;;
77078;SDS011;66004;55.096;38.760;2024-03-29T11:12:50;11.75;;;5.55;;
77078;SDS011;66004;55.096;38.760;2024-03-29T11:15:27;18.60;;;5.60;;
77078;SDS011;66004;55.096;38.760;2024-03-29T11:17:55;9.55;;;5.25;;
77078;SDS011;66004;55.096;38.760;2024-03-29T11:20:24;10.52;;;5.30;;
77078;SDS011;66004;55.096;38.760;2024-03-29T11:23:03;14.18;;;5.38;;
77078;SDS011;66004;55.096;38.760;2024-03-29T11:25:38;7.93;;;4.22;;
77078;SDS011;66004;55.096;38.760;2024-03-29T11:28:08;11.43;;;5.53;;
77078;SDS011;66004;55.096;38.760;2024-03-29T11:30:47;11.05;;;4.97;;
77078;SDS011;66004;55.096;38.760;2024-03-29T11:36:00;11.48;;;5.82;;
77078;SDS011;66004;55.096;38.760;2024-03-29T11:38:32;11.13;;;5.47;;
77078;SDS011;66004;55.096;38.760;2024-03-29T11:41:06;15.82;;;5.55;;
77078;SDS011;66004;55.096;38.760;2024-03-29T11:43:35;18.52;;;5.57;;
77078;SDS011;66004;55.096;38.760;2024-03-29T11:46:02;15.18;;;6.35;;
77078;SDS011;66004;55.096;38.760;2024-03-29T11:48:30;14.00;;;5.35;;
77078;SDS011;66004;55.096;38.760;2024-03-29T11:50:59;15.43;;;5.95;;
77078;SDS011;66004;55.096;38.760;2024-03-29T11:53:26;13.25;;;5.90;;
77078;SDS011;66004;55.096;38.760;2024-03-29T11:56:01;14.20;;;6.60;;
77078;SDS011;66004;55.096;38.760;2024-03-29T11:58:29;14.77;;;5.20;;
77078;SDS011;66004;55.096;38.760;2024-03-29T12:00:59;11.57;;;5.28;;
77078;SDS011;66004;55.096;38.760;2024-03-29T12:03:26;10.65;;;5.38;;
77078;SDS011;66004;55.096;38.760;2024-03-29T12:05:53;16.83;;;6.65;;
77078;SDS011;66004;55.096;38.760;2024-03-29T12:08:23;16.23;;;5.88;;
77078;SDS011;66004;55.096;38.760;2024-03-29T12:10:53;10.68;;;5.30;;
77078;SDS011;66004;55.096;38.760;2024-03-29T12:13:19;13.50;;;5.88;;
77078;SDS011;66004;55.096;38.760;2024-03-29T12:15:45;17.50;;;5.95;;
77078;SDS011;66004;55.096;38.760;2024-03-29T12:18:10;13.75;;;6.50;;
77078;SDS011;66004;55.096;38.760;2024-03-29T12:20:37;13.00;;;6.20;;
77078;SDS011;66004;55.096;38.760;2024-03-29T12:23:07;12.82;;;6.40;;
77078;SDS011;66004;55.096;38.760;2024-03-29T12:25:36;13.23;;;5.75;;
77078;SDS011;66004;55.096;38.760;2024-03-29T12:28:02;13.20;;;6.05;;
77078;SDS011;66004;55.096;38.760;2024-03-29T12:30:29;11.43;;;5.75;;
77078;SDS011;66004;55.096;38.760;2024-03-29T12:33:01;14.45;;;5.60;;
77078;SDS011;66004;55.096;38.760;2024-03-29T12:35:28;15.13;;;5.97;;
77078;SDS011;66004;55.096;38.760;2024-03-29T12:37:58;17.10;;;6.90;;
77078;SDS011;66004;55.096;38.760;2024-03-29T12:40:25;17.20;;;7.03;;
77078;SDS011;66004;55.096;38.760;2024-03-29T12:42:53;14.68;;;6.82;;
77078;SDS011;66004;55.096;38.760;2024-03-29T12:45:19;13.98;;;6.75;;
77078;SDS011;66004;55.096;38.760;2024-03-29T12:47:48;16.75;;;6.80;;
77078;SDS011;66004;55.096;38.760;2024-03-29T12:50:19;18.45;;;7.22;;
77078;SDS011;66004;55.096;38.760;2024-03-29T12:52:57;24.83;;;7.70;;
77078;SDS011;66004;55.096;38.760;2024-03-29T12:55:24;14.73;;;5.90;;
77078;SDS011;66004;55.096;38.760;2024-03-29T12:57:55;14.45;;;6.68;;
77078;SDS011;66004;55.096;38.760;2024-03-29T13:00:21;18.92;;;6.78;;
77078;SDS011;66004;55.096;38.760;2024-03-29T13:02:46;21.17;;;6.95;;
77078;SDS011;66004;55.096;38.760;2024-03-29T13:05:12;17.75;;;7.65;;
77078;SDS011;66004;55.096;38.760;2024-03-29T13:07:37;14.88;;;6.95;;
77078;SDS011;66004;55.096;38.760;2024-03-29T13:10:03;14.25;;;7.10;;
77078;SDS011;66004;55.096;38.760;2024-03-29T13:12:37;19.00;;;7.18;;
77078;SDS011;66004;55.096;38.760;2024-03-29T13:15:14;16.35;;;7.30;;
77078;SDS011;66004;55.096;38.760;2024-03-29T13:17:43;17.20;;;8.15;;
77078;SDS011;66004;55.096;38.760;2024-03-29T13:20:29;17.23;;;7.65;;
77078;SDS011;66004;55.096;38.760;2024-03-29T13:22:55;16.25;;;6.95;;
77078;SDS011;66004;55.096;38.760;2024-03-29T13:25:23;20.90;;;8.88;;
77078;SDS011;66004;55.096;38.760;2024-03-29T13:27:52;16.17;;;7.18;;
77078;SDS011;66004;55.096;38.760;2024-03-29T13:30:20;16.92;;;7.22;;
77078;SDS011;66004;55.096;38.760;2024-03-29T13:32:47;15.02;;;6.93;;
77078;SDS011;66004;55.096;38.760;2024-03-29T13:35:13;18.30;;;7.10;;
77078;SDS011;66004;55.096;38.760;2024-03-29T13:37:40;17.45;;;7.30;;
77078;SDS011;66004;55.096;38.760;2024-03-29T13:40:13;15.55;;;7.07;;
77078;SDS011;66004;55.096;38.760;2024-03-29T13:42:39;16.35;;;7.13;;
77078;SDS011;66004;55.096;38.760;2024-03-29T13:45:05;15.45;;;7.47;;
77078;SDS011;66004;55.096;38.760;2024-03-29T13:47:33;18.77;;;7.68;;
77078;SDS011;66004;55.096;38.760;2024-03-29T13:49:59;20.25;;;8.10;;
77078;SDS011;66004;55.096;38.760;2024-03-29T13:52:25;17.65;;;7.68;;
77078;SDS011;66004;55.096;38.760;2024-03-29T13:54:52;17.48;;;7.72;;
77078;SDS011;66004;55.096;38.760;2024-03-29T13:57:19;15.40;;;7.45;;
77078;SDS011;66004;55.096;38.760;2024-03-29T13:59:44;15.48;;;7.97;;
77078;SDS011;66004;55.096;38.760;2024-03-29T14:02:13;17.50;;;7.97;;
77078;SDS011;66004;55.096;38.760;2024-03-29T14:04:41;17.52;;;8.23;;
77078;SDS011;66004;55.096;38.760;2024-03-29T14:07:08;14.90;;;7.97;;
77078;SDS011;66004;55.096;38.760;2024-03-29T14:09:36;15.93;;;7.53;;
77078;SDS011;66004;55.096;38.760;2024-03-29T14:12:02;15.98;;;7.38;;
77078;SDS011;66004;55.096;38.760;2024-03-29T14:14:28;14.30;;;7.03;;
77078;SDS011;66004;55.096;38.760;2024-03-29T14:16:54;13.73;;;7.22;;
77078;SDS011;66004;55.096;38.760;2024-03-29T14:19:20;19.63;;;7.97;;
77078;SDS011;66004;55.096;38.760;2024-03-29T14:21:45;19.17;;;8.00;;
77078;SDS011;66004;55.096;38.760;2024-03-29T14:24:11;15.90;;;8.00;;
77078;SDS011;66004;55.096;38.760;2024-03-29T14:26:36;16.27;;;7.75;;
77078;SDS011;66004;55.096;38.760;2024-03-29T14:29:03;16.83;;;8.60;;
77078;SDS011;66004;55.096;38.760;2024-03-29T14:31:29;16.30;;;7.47;;
77078;SDS011;66004;55.096;38.760;2024-03-29T14:33:55;16.48;;;7.53;;
77078;SDS011;66004;55.096;38.760;2024-03-29T14:36:20;13.60;;;6.60;;
77078;SDS011;66004;55.096;38.760;2024-03-29T14:38:46;18.45;;;7.13;;
77078;SDS011;66004;55.096;38.760;2024-03-29T14:41:12;19.35;;;7.47;;
77078;SDS011;66004;55.096;38.760;2024-03-29T14:43:38;23.58;;;8.02;;
77078;SDS011;66004;55.096;38.760;2024-03-29T14:46:04;15.55;;;7.55;;
77078;SDS011;66004;55.096;38.760;2024-03-29T14:48:29;15.80;;;7.45;;
77078;SDS011;66004;55.096;38.760;2024-03-29T14:50:55;21.05;;;8.98;;
77078;SDS011;66004;55.096;38.760;2024-03-29T14:53:21;18.27;;;7.53;;
77078;SDS011;66004;55.096;38.760;2024-03-29T14:55:47;18.70;;;8.25;;
77078;SDS011;66004;55.096;38.760;2024-03-29T14:58:13;22.23;;;7.97;;
77078;SDS011;66004;55.096;38.760;2024-03-29T15:00:38;17.63;;;7.85;;
77078;SDS011;66004;55.096;38.760;2024-03-29T15:03:04;18.50;;;7.95;;
77078;SDS011;66004;55.096;38.760;2024-03-29T15:05:30;16.45;;;8.02;;
77078;SDS011;66004;55.096;38.760;2024-03-29T15:07:55;18.83;;;7.90;;
77078;SDS011;66004;55.096;38.760;2024-03-29T15:10:21;15.07;;;7.40;;
77078;SDS011;66004;55.096;38.760;2024-03-29T15:12:48;19.20;;;7.68;;
77078;SDS011;66004;55.096;38.760;2024-03-29T15:15:14;21.00;;;7.25;;
77078;SDS011;66004;55.096;38.760;2024-03-29T15:17:39;20.10;;;7.80;;
77078;SDS011;66004;55.096;38.760;2024-03-29T15:20:06;20.95;;;8.23;;
77078;SDS011;66004;55.096;38.760;2024-03-29T15:22:34;16.73;;;7.45;;
77078;SDS011;66004;55.096;38.760;2024-03-29T15:25:06;15.75;;;8.00;;
77078;SDS011;66004;55.096;38.760;2024-03-29T15:27:31;21.33;;;7.45;;
77078;SDS011;66004;55.096;38.760;2024-03-29T15:30:16;14.70;;;7.68;;
77078;SDS011;66004;55.096;38.760;2024-03-29T15:32:44;16.33;;;7.30;;
77078;SDS011;66004;55.096;38.760;2024-03-29T15:35:10;20.50;;;8.43;;
77078;SDS011;66004;55.096;38.760;2024-03-29T15:40:02;14.07;;;7.05;;
77078;SDS011;66004;55.096;38.760;2024-03-29T15:42:29;17.38;;;7.53;;
77078;SDS011;66004;55.096;38.760;2024-03-29T15:44:54;20.63;;;7.40;;
77078;SDS011;66004;55.096;38.760;2024-03-29T15:47:20;16.55;;;7.90;;
77078;SDS011;66004;55.096;38.760;2024-03-29T15:52:11;17.88;;;7.30;;
77078;SDS011;66004;55.096;38.760;2024-03-29T15:54:37;17.77;;;7.15;;
77078;SDS011;66004;55.096;38.760;2024-03-29T15:59:28;18.75;;;8.52;;
77078;SDS011;66004;55.096;38.760;2024-03-29T16:04:20;12.00;;;6.07;;
77078;SDS011;66004;55.096;38.760;2024-03-29T16:06:49;18.50;;;7.32;;
77078;SDS011;66004;55.096;38.760;2024-03-29T16:11:40;17.20;;;8.18;;
77078;SDS011;66004;55.096;38.760;2024-03-29T16:16:32;17.42;;;7.75;;
77078;SDS011;66004;55.096;38.760;2024-03-29T16:18:58;18.23;;;8.77;;
77078;SDS011;66004;55.096;38.760;2024-03-29T16:21:26;14.05;;;7.43;;
77078;SDS011;66004;55.096;38.760;2024-03-29T16:26:17;14.80;;;7.75;;
77078;SDS011;66004;55.096;38.760;2024-03-29T16:28:44;17.88;;;7.97;;
77078;SDS011;66004;55.096;38.760;2024-03-29T16:31:17;13.30;;;7.63;;
77078;SDS011;66004;55.096;38.760;2024-03-29T16:36:09;17.05;;;7.10;;
77078;SDS011;66004;55.096;38.760;2024-03-29T16:41:00;22.80;;;8.75;;
77078;SDS011;66004;55.096;38.760;2024-03-29T16:43:29;18.63;;;7.53;;
77078;SDS011;66004;55.096;38.760;2024-03-29T16:45:54;21.27;;;9.10;;
77078;SDS011;66004;55.096;38.760;2024-03-29T16:48:20;22.88;;;9.23;;
77078;SDS011;66004;55.096;38.760;2024-03-29T16:50:49;23.15;;;9.15;;
77078;SDS011;66004;55.096;38.760;2024-03-29T16:55:41;21.20;;;8.73;;
77078;SDS011;66004;55.096;38.760;2024-03-29T17:00:40;18.50;;;8.23;;
77078;SDS011;66004;55.096;38.760;2024-03-29T17:03:09;20.10;;;8.75;;
77078;SDS011;66004;55.096;38.760;2024-03-29T17:05:36;24.77;;;9.68;;
77078;SDS011;66004;55.096;38.760;2024-03-29T17:08:02;17.73;;;9.07;;
77078;SDS011;66004;55.096;38.760;2024-03-29T17:12:53;24.25;;;10.05;;
77078;SDS011;66004;55.096;38.760;2024-03-29T17:18:01;25.80;;;9.18;;
77078;SDS011;66004;55.096;38.760;2024-03-29T17:20:27;20.63;;;8.88;;
77078;SDS011;66004;55.096;38.760;2024-03-29T17:25:18;23.80;;;8.55;;
77078;SDS011;66004;55.096;38.760;2024-03-29T17:30:09;19.08;;;9.05;;
77078;SDS011;66004;55.096;38.760;2024-03-29T17:35:01;22.02;;;9.90;;